sensor_id;sensor_type;location;lat;lon;timestamp;pressure;altitude;pressure_sealevel;temperature;humidity
25944;BME280;13742;49.306;8.636;2023-02-20T00:00:36;101652.84;;;9.43;89.24
25944;BME280;13742;49.306;8.636;2023-02-20T00:01:34;101651.98;;;9.42;89.20
25944;BME280;13742;49.306;8.636;2023-02-20T00:02:35;101655.47;;;9.43;89.26
25944;BME280;13742;49.306;8.636;2023-02-20T00:03:34;101657.83;;;9.42;89.07
25944;BME280;13742;49.306;8.636;2023-02-20T00:04:34;101657.63;;;9.42;89.08
25944;BME280;13742;49.306;8.636;2023-02-20T00:05:34;101662.45;;;9.42;89.04
25944;BME280;13742;49.306;8.636;2023-02-20T00:06:34;101665.81;;;9.41;88.93
25944;BME280;13742;49.306;8.636;2023-02-20T00:07:34;101661.11;;;9.39;88.99
25944;BME280;13742;49.306;8.636;2023-02-20T00:08:35;101663.72;;;9.40;88.91
25944;BME280;13742;49.306;8.636;2023-02-20T00:09:34;101669.11;;;9.41;88.93
25944;BME280;13742;49.306;8.636;2023-02-20T00:10:34;101669.13;;;9.40;88.89
25944;BME280;13742;49.306;8.636;2023-02-20T00:11:34;101669.97;;;9.39;88.89
25944;BME280;13742;49.306;8.636;2023-02-20T00:12:34;101672.22;;;9.39;88.96
25944;BME280;13742;49.306;8.636;2023-02-20T00:13:34;101671.39;;;9.40;88.85
25944;BME280;13742;49.306;8.636;2023-02-20T00:14:34;101673.30;;;9.40;88.82
25944;BME280;13742;49.306;8.636;2023-02-20T00:15:34;101673.64;;;9.39;88.73
25944;BME280;13742;49.306;8.636;2023-02-20T00:16:34;101677.83;;;9.39;88.84
25944;BME280;13742;49.306;8.636;2023-02-20T00:17:34;101682.45;;;9.39;88.81
25944;BME280;13742;49.306;8.636;2023-02-20T00:18:34;101678.47;;;9.39;88.55
25944;BME280;13742;49.306;8.636;2023-02-20T00:19:34;101679.77;;;9.37;88.70
25944;BME280;13742;49.306;8.636;2023-02-20T00:20:36;101681.63;;;9.37;88.76
25944;BME280;13742;49.306;8.636;2023-02-20T00:21:34;101680.30;;;9.37;88.56
25944;BME280;13742;49.306;8.636;2023-02-20T00:22:34;101678.39;;;9.36;88.58
25944;BME280;13742;49.306;8.636;2023-02-20T00:23:34;101678.50;;;9.36;88.92
25944;BME280;13742;49.306;8.636;2023-02-20T00:24:35;101675.84;;;9.36;88.73
25944;BME280;13742;49.306;8.636;2023-02-20T00:25:34;101678.38;;;9.37;88.87
25944;BME280;13742;49.306;8.636;2023-02-20T00:26:34;101677.12;;;9.36;88.81
25944;BME280;13742;49.306;8.636;2023-02-20T00:27:34;101676.78;;;9.36;88.72
25944;BME280;13742;49.306;8.636;2023-02-20T00:28:34;101678.30;;;9.34;88.48
25944;BME280;13742;49.306;8.636;2023-02-20T00:29:35;101678.44;;;9.34;88.73
25944;BME280;13742;49.306;8.636;2023-02-20T00:30:34;101678.85;;;9.33;88.82
25944;BME280;13742;49.306;8.636;2023-02-20T00:31:34;101679.06;;;9.33;88.79
25944;BME280;13742;49.306;8.636;2023-02-20T00:32:34;101677.31;;;9.32;88.76
25944;BME280;13742;49.306;8.636;2023-02-20T00:33:35;101677.70;;;9.31;88.65
25944;BME280;13742;49.306;8.636;2023-02-20T00:34:34;101680.19;;;9.30;88.70
25944;BME280;13742;49.306;8.636;2023-02-20T00:35:37;101678.42;;;9.30;88.70
25944;BME280;13742;49.306;8.636;2023-02-20T00:36:34;101673.53;;;9.29;88.73
25944;BME280;13742;49.306;8.636;2023-02-20T00:37:34;101675.20;;;9.28;88.66
25944;BME280;13742;49.306;8.636;2023-02-20T00:38:34;101677.23;;;9.27;88.65
25944;BME280;13742;49.306;8.636;2023-02-20T00:39:34;101678.73;;;9.27;88.56
25944;BME280;13742;49.306;8.636;2023-02-20T00:40:34;101679.39;;;9.24;88.42
25944;BME280;13742;49.306;8.636;2023-02-20T00:41:34;101680.83;;;9.25;88.43
25944;BME280;13742;49.306;8.636;2023-02-20T00:42:34;101678.38;;;9.24;88.40
25944;BME280;13742;49.306;8.636;2023-02-20T00:43:35;101676.55;;;9.22;88.35
25944;BME280;13742;49.306;8.636;2023-02-20T00:44:34;101679.95;;;9.21;88.24
25944;BME280;13742;49.306;8.636;2023-02-20T00:45:34;101680.30;;;9.18;88.09
25944;BME280;13742;49.306;8.636;2023-02-20T00:46:34;101682.66;;;9.17;88.03
25944;BME280;13742;49.306;8.636;2023-02-20T00:47:34;101675.44;;;9.16;88.24
25944;BME280;13742;49.306;8.636;2023-02-20T00:48:34;101676.28;;;9.14;87.96
25944;BME280;13742;49.306;8.636;2023-02-20T00:49:34;101672.88;;;9.13;87.93
25944;BME280;13742;49.306;8.636;2023-02-20T00:50:34;101676.32;;;9.12;87.89
25944;BME280;13742;49.306;8.636;2023-02-20T00:51:35;101668.64;;;9.11;87.86
25944;BME280;13742;49.306;8.636;2023-02-20T00:52:35;101670.14;;;9.10;87.80
25944;BME280;13742;49.306;8.636;2023-02-20T00:53:34;101667.17;;;9.08;87.79
25944;BME280;13742;49.306;8.636;2023-02-20T00:54:34;101664.45;;;9.07;87.97
25944;BME280;13742;49.306;8.636;2023-02-20T00:55:34;101662.21;;;9.06;87.91
25944;BME280;13742;49.306;8.636;2023-02-20T00:56:34;101661.16;;;9.05;87.85
25944;BME280;13742;49.306;8.636;2023-02-20T00:57:34;101659.45;;;9.05;87.71
25944;BME280;13742;49.306;8.636;2023-02-20T00:58:34;101659.37;;;9.04;87.90
25944;BME280;13742;49.306;8.636;2023-02-20T00:59:34;101661.65;;;9.04;87.72
25944;BME280;13742;49.306;8.636;2023-02-20T01:00:34;101665.95;;;9.00;87.09
25944;BME280;13742;49.306;8.636;2023-02-20T01:01:34;101664.34;;;8.95;87.10
25944;BME280;13742;49.306;8.636;2023-02-20T01:02:34;101663.27;;;8.94;87.27
25944;BME280;13742;49.306;8.636;2023-02-20T01:03:34;101662.66;;;8.93;87.37
25944;BME280;13742;49.306;8.636;2023-02-20T01:04:34;101663.15;;;8.91;87.27
25944;BME280;13742;49.306;8.636;2023-02-20T01:05:34;101661.67;;;8.90;87.34
25944;BME280;13742;49.306;8.636;2023-02-20T01:06:34;101662.06;;;8.89;87.28
25944;BME280;13742;49.306;8.636;2023-02-20T01:07:34;101663.95;;;8.88;87.32
25944;BME280;13742;49.306;8.636;2023-02-20T01:08:34;101664.78;;;8.87;87.32
25944;BME280;13742;49.306;8.636;2023-02-20T01:09:34;101667.29;;;8.85;87.32
25944;BME280;13742;49.306;8.636;2023-02-20T01:10:34;101670.76;;;8.85;87.14
25944;BME280;13742;49.306;8.636;2023-02-20T01:11:34;101669.42;;;8.83;87.20
25944;BME280;13742;49.306;8.636;2023-02-20T01:12:34;101671.50;;;8.82;87.31
25944;BME280;13742;49.306;8.636;2023-02-20T01:13:34;101670.44;;;8.82;87.34
25944;BME280;13742;49.306;8.636;2023-02-20T01:14:34;101670.30;;;8.80;87.42
25944;BME280;13742;49.306;8.636;2023-02-20T01:15:34;101664.09;;;8.78;87.38
25944;BME280;13742;49.306;8.636;2023-02-20T01:16:34;101663.39;;;8.77;87.38
25944;BME280;13742;49.306;8.636;2023-02-20T01:17:34;101663.55;;;8.75;87.49
25944;BME280;13742;49.306;8.636;2023-02-20T01:18:34;101666.16;;;8.74;87.63
25944;BME280;13742;49.306;8.636;2023-02-20T01:19:34;101661.81;;;8.73;87.57
25944;BME280;13742;49.306;8.636;2023-02-20T01:20:34;101661.66;;;8.72;87.60
25944;BME280;13742;49.306;8.636;2023-02-20T01:21:34;101660.19;;;8.72;87.70
25944;BME280;13742;49.306;8.636;2023-02-20T01:22:34;101664.34;;;8.70;87.45
25944;BME280;13742;49.306;8.636;2023-02-20T01:23:34;101664.38;;;8.68;87.59
25944;BME280;13742;49.306;8.636;2023-02-20T01:24:34;101665.58;;;8.67;87.78
25944;BME280;13742;49.306;8.636;2023-02-20T01:25:34;101663.88;;;8.65;87.77
25944;BME280;13742;49.306;8.636;2023-02-20T01:26:35;101662.41;;;8.64;87.84
25944;BME280;13742;49.306;8.636;2023-02-20T01:27:34;101666.20;;;8.64;87.79
25944;BME280;13742;49.306;8.636;2023-02-20T01:28:34;101668.23;;;8.64;87.81
25944;BME280;13742;49.306;8.636;2023-02-20T01:29:34;101666.03;;;8.62;87.80
25944;BME280;13742;49.306;8.636;2023-02-20T01:30:34;101668.44;;;8.61;87.91
25944;BME280;13742;49.306;8.636;2023-02-20T01:31:34;101662.86;;;8.60;87.83
25944;BME280;13742;49.306;8.636;2023-02-20T01:32:34;101665.13;;;8.59;87.74
25944;BME280;13742;49.306;8.636;2023-02-20T01:33:34;101664.34;;;8.57;87.70
25944;BME280;13742;49.306;8.636;2023-02-20T01:34:34;101661.38;;;8.54;87.76
25944;BME280;13742;49.306;8.636;2023-02-20T01:35:35;101664.65;;;8.53;87.80
25944;BME280;13742;49.306;8.636;2023-02-20T01:36:34;101660.52;;;8.52;87.87
25944;BME280;13742;49.306;8.636;2023-02-20T01:37:34;101665.20;;;8.49;87.77
25944;BME280;13742;49.306;8.636;2023-02-20T01:38:34;101671.94;;;8.48;87.87
25944;BME280;13742;49.306;8.636;2023-02-20T01:39:34;101668.16;;;8.45;87.82
25944;BME280;13742;49.306;8.636;2023-02-20T01:40:34;101669.22;;;8.43;87.85
25944;BME280;13742;49.306;8.636;2023-02-20T01:41:34;101672.07;;;8.42;88.22
25944;BME280;13742;49.306;8.636;2023-02-20T01:42:34;101672.91;;;8.40;88.22
25944;BME280;13742;49.306;8.636;2023-02-20T01:43:34;101674.11;;;8.40;88.33
25944;BME280;13742;49.306;8.636;2023-02-20T01:44:35;101678.17;;;8.38;88.02
25944;BME280;13742;49.306;8.636;2023-02-20T01:45:35;101675.94;;;8.36;88.13
25944;BME280;13742;49.306;8.636;2023-02-20T01:46:41;101673.64;;;8.36;88.18
25944;BME280;13742;49.306;8.636;2023-02-20T01:47:34;101667.05;;;8.33;88.17
25944;BME280;13742;49.306;8.636;2023-02-20T01:48:34;101668.55;;;8.32;88.10
25944;BME280;13742;49.306;8.636;2023-02-20T01:49:35;101665.19;;;8.29;88.09
25944;BME280;13742;49.306;8.636;2023-02-20T01:50:36;101663.72;;;8.29;88.27
25944;BME280;13742;49.306;8.636;2023-02-20T01:51:35;101663.86;;;8.27;88.42
25944;BME280;13742;49.306;8.636;2023-02-20T01:52:34;101663.41;;;8.24;88.07
25944;BME280;13742;49.306;8.636;2023-02-20T01:53:34;101656.98;;;8.23;88.41
25944;BME280;13742;49.306;8.636;2023-02-20T01:54:35;101657.53;;;8.22;88.44
25944;BME280;13742;49.306;8.636;2023-02-20T01:55:53;101659.97;;;8.20;88.42
25944;BME280;13742;49.306;8.636;2023-02-20T01:56:34;101663.03;;;8.19;88.36
25944;BME280;13742;49.306;8.636;2023-02-20T01:57:34;101661.73;;;8.18;88.43
25944;BME280;13742;49.306;8.636;2023-02-20T01:59:35;101656.09;;;8.16;88.47
25944;BME280;13742;49.306;8.636;2023-02-20T02:00:34;101653.31;;;8.15;88.45
25944;BME280;13742;49.306;8.636;2023-02-20T02:01:34;101654.67;;;8.14;88.46
25944;BME280;13742;49.306;8.636;2023-02-20T02:03:36;101654.78;;;8.12;88.54
25944;BME280;13742;49.306;8.636;2023-02-20T02:04:34;101653.31;;;8.12;88.56
25944;BME280;13742;49.306;8.636;2023-02-20T02:05:34;101648.45;;;8.10;88.56
25944;BME280;13742;49.306;8.636;2023-02-20T02:06:36;101646.53;;;8.09;88.47
25944;BME280;13742;49.306;8.636;2023-02-20T02:07:34;101649.14;;;8.08;88.60
25944;BME280;13742;49.306;8.636;2023-02-20T02:08:35;101648.20;;;8.07;88.49
25944;BME280;13742;49.306;8.636;2023-02-20T02:09:38;101653.44;;;8.06;88.55
25944;BME280;13742;49.306;8.636;2023-02-20T02:10:39;101652.77;;;8.04;88.55
25944;BME280;13742;49.306;8.636;2023-02-20T02:11:36;101650.86;;;8.03;88.44
25944;BME280;13742;49.306;8.636;2023-02-20T02:12:34;101645.39;;;8.02;88.50
25944;BME280;13742;49.306;8.636;2023-02-20T02:13:35;101640.11;;;8.01;88.60
25944;BME280;13742;49.306;8.636;2023-02-20T02:14:34;101643.56;;;8.01;88.62
25944;BME280;13742;49.306;8.636;2023-02-20T02:15:34;101641.36;;;7.99;88.69
25944;BME280;13742;49.306;8.636;2023-02-20T02:17:56;101640.78;;;7.96;88.59
25944;BME280;13742;49.306;8.636;2023-02-20T02:24:48;101643.65;;;7.88;88.63
25944;BME280;13742;49.306;8.636;2023-02-20T02:25:37;101643.63;;;7.87;88.68
25944;BME280;13742;49.306;8.636;2023-02-20T02:28:56;101643.30;;;7.84;88.86
25944;BME280;13742;49.306;8.636;2023-02-20T02:29:57;101639.38;;;7.79;88.68
25944;BME280;13742;49.306;8.636;2023-02-20T02:33:41;101638.33;;;7.75;89.71
25944;BME280;13742;49.306;8.636;2023-02-20T02:34:43;101641.34;;;7.74;89.41
25944;BME280;13742;49.306;8.636;2023-02-20T02:39:42;101641.35;;;7.70;89.86
25944;BME280;13742;49.306;8.636;2023-02-20T02:40:40;101638.73;;;7.69;89.86
25944;BME280;13742;49.306;8.636;2023-02-20T02:42:56;101638.23;;;7.66;89.72
25944;BME280;13742;49.306;8.636;2023-02-20T02:43:40;101638.45;;;7.66;89.84
25944;BME280;13742;49.306;8.636;2023-02-20T02:45:37;101639.16;;;7.64;90.13
25944;BME280;13742;49.306;8.636;2023-02-20T02:46:38;101637.47;;;7.62;89.78
25944;BME280;13742;49.306;8.636;2023-02-20T02:47:40;101636.25;;;7.60;90.11
25944;BME280;13742;49.306;8.636;2023-02-20T02:48:35;101635.48;;;7.59;90.36
25944;BME280;13742;49.306;8.636;2023-02-20T02:49:36;101630.45;;;7.58;90.26
25944;BME280;13742;49.306;8.636;2023-02-20T02:50:36;101627.48;;;7.58;90.45
25944;BME280;13742;49.306;8.636;2023-02-20T02:51:35;101625.73;;;7.57;90.43
25944;BME280;13742;49.306;8.636;2023-02-20T02:52:39;101629.31;;;7.57;90.53
25944;BME280;13742;49.306;8.636;2023-02-20T02:53:34;101624.92;;;7.56;90.61
25944;BME280;13742;49.306;8.636;2023-02-20T02:54:34;101621.03;;;7.55;90.96
25944;BME280;13742;49.306;8.636;2023-02-20T02:55:34;101623.95;;;7.55;91.11
25944;BME280;13742;49.306;8.636;2023-02-20T02:56:35;101630.33;;;7.54;91.17
25944;BME280;13742;49.306;8.636;2023-02-20T02:57:34;101629.92;;;7.47;91.28
25944;BME280;13742;49.306;8.636;2023-02-20T02:58:34;101625.92;;;7.45;91.64
25944;BME280;13742;49.306;8.636;2023-02-20T02:59:34;101625.91;;;7.46;91.91
25944;BME280;13742;49.306;8.636;2023-02-20T03:00:36;101627.18;;;7.46;92.20
25944;BME280;13742;49.306;8.636;2023-02-20T03:01:36;101626.08;;;7.42;91.93
25944;BME280;13742;49.306;8.636;2023-02-20T03:02:36;101623.70;;;7.42;92.36
25944;BME280;13742;49.306;8.636;2023-02-20T03:03:36;101628.25;;;7.43;92.35
25944;BME280;13742;49.306;8.636;2023-02-20T03:04:34;101626.90;;;7.42;92.14
25944;BME280;13742;49.306;8.636;2023-02-20T03:05:45;101626.30;;;7.41;92.05
25944;BME280;13742;49.306;8.636;2023-02-20T03:06:36;101626.17;;;7.41;92.22
25944;BME280;13742;49.306;8.636;2023-02-20T03:07:35;101625.20;;;7.40;92.30
25944;BME280;13742;49.306;8.636;2023-02-20T03:09:36;101622.80;;;7.38;92.33
25944;BME280;13742;49.306;8.636;2023-02-20T03:10:37;101624.52;;;7.39;92.38
25944;BME280;13742;49.306;8.636;2023-02-20T03:11:34;101619.98;;;7.37;92.05
25944;BME280;13742;49.306;8.636;2023-02-20T03:12:38;101623.61;;;7.36;92.12
25944;BME280;13742;49.306;8.636;2023-02-20T03:13:50;101624.48;;;7.35;92.01
25944;BME280;13742;49.306;8.636;2023-02-20T03:14:41;101623.75;;;7.35;91.93
25944;BME280;13742;49.306;8.636;2023-02-20T03:15:35;101621.75;;;7.33;92.05
25944;BME280;13742;49.306;8.636;2023-02-20T03:16:56;101623.59;;;7.30;91.81
25944;BME280;13742;49.306;8.636;2023-02-20T03:18:35;101625.11;;;7.27;91.97
25944;BME280;13742;49.306;8.636;2023-02-20T03:20:35;101621.56;;;7.24;91.87
25944;BME280;13742;49.306;8.636;2023-02-20T03:21:34;101623.77;;;7.26;92.45
25944;BME280;13742;49.306;8.636;2023-02-20T03:22:36;101623.91;;;7.25;92.29
25944;BME280;13742;49.306;8.636;2023-02-20T03:23:35;101627.47;;;7.25;92.71
25944;BME280;13742;49.306;8.636;2023-02-20T03:24:50;101625.84;;;7.24;92.50
25944;BME280;13742;49.306;8.636;2023-02-20T03:26:34;101628.25;;;7.22;92.35
25944;BME280;13742;49.306;8.636;2023-02-20T03:27:43;101630.05;;;7.22;92.75
25944;BME280;13742;49.306;8.636;2023-02-20T03:28:39;101626.86;;;7.21;93.02
25944;BME280;13742;49.306;8.636;2023-02-20T03:29:34;101624.64;;;7.21;92.97
25944;BME280;13742;49.306;8.636;2023-02-20T03:31:56;101624.50;;;7.19;93.08
25944;BME280;13742;49.306;8.636;2023-02-20T03:32:39;101622.17;;;7.18;92.96
25944;BME280;13742;49.306;8.636;2023-02-20T03:33:42;101623.20;;;7.17;92.70
25944;BME280;13742;49.306;8.636;2023-02-20T03:34:39;101621.16;;;7.17;92.71
25944;BME280;13742;49.306;8.636;2023-02-20T03:35:39;101621.08;;;7.16;92.81
25944;BME280;13742;49.306;8.636;2023-02-20T03:36:41;101622.09;;;7.15;92.51
25944;BME280;13742;49.306;8.636;2023-02-20T03:37:39;101620.84;;;7.12;92.46
25944;BME280;13742;49.306;8.636;2023-02-20T03:38:40;101621.54;;;7.12;92.64
25944;BME280;13742;49.306;8.636;2023-02-20T03:39:41;101618.44;;;7.10;92.58
25944;BME280;13742;49.306;8.636;2023-02-20T03:40:39;101620.89;;;7.11;92.84
25944;BME280;13742;49.306;8.636;2023-02-20T03:41:39;101617.61;;;7.10;93.03
25944;BME280;13742;49.306;8.636;2023-02-20T03:42:40;101624.77;;;7.09;93.01
25944;BME280;13742;49.306;8.636;2023-02-20T03:43:34;101622.02;;;7.09;93.33
25944;BME280;13742;49.306;8.636;2023-02-20T03:44:34;101620.83;;;7.09;93.33
25944;BME280;13742;49.306;8.636;2023-02-20T03:45:35;101624.48;;;7.09;93.25
25944;BME280;13742;49.306;8.636;2023-02-20T03:46:34;101624.12;;;7.09;93.27
25944;BME280;13742;49.306;8.636;2023-02-20T03:47:35;101625.55;;;7.09;93.06
25944;BME280;13742;49.306;8.636;2023-02-20T03:49:40;101621.42;;;7.07;93.03
25944;BME280;13742;49.306;8.636;2023-02-20T03:50:34;101621.42;;;7.07;93.09
25944;BME280;13742;49.306;8.636;2023-02-20T03:51:34;101619.09;;;7.07;93.29
25944;BME280;13742;49.306;8.636;2023-02-20T03:52:34;101619.75;;;7.07;93.28
25944;BME280;13742;49.306;8.636;2023-02-20T03:53:34;101616.44;;;7.06;93.39
25944;BME280;13742;49.306;8.636;2023-02-20T03:54:34;101613.69;;;7.05;93.34
25944;BME280;13742;49.306;8.636;2023-02-20T03:55:34;101611.13;;;7.03;93.59
25944;BME280;13742;49.306;8.636;2023-02-20T03:56:39;101613.42;;;7.03;93.66
25944;BME280;13742;49.306;8.636;2023-02-20T03:57:37;101613.05;;;7.03;93.87
25944;BME280;13742;49.306;8.636;2023-02-20T03:58:35;101615.89;;;6.99;93.44
25944;BME280;13742;49.306;8.636;2023-02-20T03:59:36;101618.63;;;7.00;93.45
25944;BME280;13742;49.306;8.636;2023-02-20T04:00:35;101614.08;;;6.99;93.68
25944;BME280;13742;49.306;8.636;2023-02-20T04:01:34;101613.09;;;6.99;93.60
25944;BME280;13742;49.306;8.636;2023-02-20T04:03:35;101621.53;;;6.97;93.50
25944;BME280;13742;49.306;8.636;2023-02-20T04:04:39;101625.06;;;6.97;93.82
25944;BME280;13742;49.306;8.636;2023-02-20T04:05:35;101624.16;;;6.98;94.17
25944;BME280;13742;49.306;8.636;2023-02-20T04:06:34;101622.95;;;6.98;94.12
25944;BME280;13742;49.306;8.636;2023-02-20T04:08:36;101629.77;;;6.98;94.08
25944;BME280;13742;49.306;8.636;2023-02-20T04:09:34;101628.70;;;6.99;94.08
25944;BME280;13742;49.306;8.636;2023-02-20T04:10:36;101629.50;;;6.97;93.98
25944;BME280;13742;49.306;8.636;2023-02-20T04:11:38;101630.19;;;6.98;94.09
25944;BME280;13742;49.306;8.636;2023-02-20T04:12:35;101630.73;;;6.97;93.84
25944;BME280;13742;49.306;8.636;2023-02-20T04:13:34;101627.16;;;6.96;93.87
25944;BME280;13742;49.306;8.636;2023-02-20T04:14:34;101627.75;;;6.95;93.95
25944;BME280;13742;49.306;8.636;2023-02-20T04:15:34;101627.44;;;6.97;94.15
25944;BME280;13742;49.306;8.636;2023-02-20T04:16:35;101630.45;;;6.96;94.15
25944;BME280;13742;49.306;8.636;2023-02-20T04:17:36;101632.41;;;6.97;94.31
25944;BME280;13742;49.306;8.636;2023-02-20T04:18:34;101636.08;;;6.96;94.22
25944;BME280;13742;49.306;8.636;2023-02-20T04:19:34;101639.74;;;6.95;94.05
25944;BME280;13742;49.306;8.636;2023-02-20T04:20:34;101641.44;;;6.94;93.97
25944;BME280;13742;49.306;8.636;2023-02-20T04:21:37;101638.36;;;6.93;94.35
25944;BME280;13742;49.306;8.636;2023-02-20T04:22:35;101640.88;;;6.92;94.24
25944;BME280;13742;49.306;8.636;2023-02-20T04:23:35;101641.09;;;6.91;94.36
25944;BME280;13742;49.306;8.636;2023-02-20T04:26:34;101640.11;;;6.90;94.68
25944;BME280;13742;49.306;8.636;2023-02-20T04:27:34;101639.39;;;6.89;94.35
25944;BME280;13742;49.306;8.636;2023-02-20T04:28:34;101637.09;;;6.88;94.33
25944;BME280;13742;49.306;8.636;2023-02-20T04:29:34;101638.63;;;6.87;94.48
25944;BME280;13742;49.306;8.636;2023-02-20T04:30:34;101646.01;;;6.88;94.87
25944;BME280;13742;49.306;8.636;2023-02-20T04:31:34;101646.72;;;6.87;94.98
25944;BME280;13742;49.306;8.636;2023-02-20T04:32:34;101649.09;;;6.87;95.11
25944;BME280;13742;49.306;8.636;2023-02-20T04:33:34;101650.34;;;6.85;94.67
25944;BME280;13742;49.306;8.636;2023-02-20T04:34:34;101645.39;;;6.84;94.59
25944;BME280;13742;49.306;8.636;2023-02-20T04:35:34;101642.44;;;6.83;94.58
25944;BME280;13742;49.306;8.636;2023-02-20T04:36:34;101642.61;;;6.82;94.55
25944;BME280;13742;49.306;8.636;2023-02-20T04:37:34;101642.98;;;6.81;94.41
25944;BME280;13742;49.306;8.636;2023-02-20T04:38:34;101639.80;;;6.80;94.73
25944;BME280;13742;49.306;8.636;2023-02-20T04:39:34;101638.70;;;6.79;94.68
25944;BME280;13742;49.306;8.636;2023-02-20T04:40:34;101639.64;;;6.79;94.87
25944;BME280;13742;49.306;8.636;2023-02-20T04:41:34;101637.28;;;6.76;94.75
25944;BME280;13742;49.306;8.636;2023-02-20T04:42:34;101635.70;;;6.75;94.73
25944;BME280;13742;49.306;8.636;2023-02-20T04:43:34;101633.92;;;6.71;94.64
25944;BME280;13742;49.306;8.636;2023-02-20T04:44:35;101631.95;;;6.71;94.87
25944;BME280;13742;49.306;8.636;2023-02-20T04:45:34;101629.53;;;6.67;94.83
25944;BME280;13742;49.306;8.636;2023-02-20T04:46:34;101627.19;;;6.67;95.13
25944;BME280;13742;49.306;8.636;2023-02-20T04:47:34;101625.03;;;6.66;95.14
25944;BME280;13742;49.306;8.636;2023-02-20T04:48:34;101628.03;;;6.65;94.88
25944;BME280;13742;49.306;8.636;2023-02-20T04:49:34;101630.83;;;6.65;95.14
25944;BME280;13742;49.306;8.636;2023-02-20T04:50:34;101629.31;;;6.65;95.33
25944;BME280;13742;49.306;8.636;2023-02-20T04:51:34;101629.45;;;6.63;94.92
25944;BME280;13742;49.306;8.636;2023-02-20T04:52:34;101632.31;;;6.64;95.27
25944;BME280;13742;49.306;8.636;2023-02-20T04:53:34;101632.08;;;6.63;95.45
25944;BME280;13742;49.306;8.636;2023-02-20T04:54:34;101631.28;;;6.64;95.47
25944;BME280;13742;49.306;8.636;2023-02-20T04:55:34;101630.10;;;6.63;95.36
25944;BME280;13742;49.306;8.636;2023-02-20T04:56:34;101627.44;;;6.63;95.46
25944;BME280;13742;49.306;8.636;2023-02-20T04:57:34;101624.04;;;6.62;95.38
25944;BME280;13742;49.306;8.636;2023-02-20T04:58:36;101626.88;;;6.62;95.55
25944;BME280;13742;49.306;8.636;2023-02-20T04:59:34;101630.02;;;6.59;95.71
25944;BME280;13742;49.306;8.636;2023-02-20T05:00:34;101628.53;;;6.59;95.69
25944;BME280;13742;49.306;8.636;2023-02-20T05:01:34;101625.13;;;6.59;95.86
25944;BME280;13742;49.306;8.636;2023-02-20T05:02:36;101627.42;;;6.60;96.02
25944;BME280;13742;49.306;8.636;2023-02-20T05:03:34;101626.92;;;6.61;96.11
25944;BME280;13742;49.306;8.636;2023-02-20T05:04:34;101628.97;;;6.62;96.15
25944;BME280;13742;49.306;8.636;2023-02-20T05:05:34;101629.50;;;6.62;96.05
25944;BME280;13742;49.306;8.636;2023-02-20T05:06:38;101629.95;;;6.62;96.19
25944;BME280;13742;49.306;8.636;2023-02-20T05:07:34;101631.52;;;6.61;95.90
25944;BME280;13742;49.306;8.636;2023-02-20T05:08:34;101633.48;;;6.61;96.05
25944;BME280;13742;49.306;8.636;2023-02-20T05:09:34;101629.93;;;6.60;96.21
25944;BME280;13742;49.306;8.636;2023-02-20T05:10:35;101629.47;;;6.60;96.26
25944;BME280;13742;49.306;8.636;2023-02-20T05:11:34;101629.17;;;6.62;96.26
25944;BME280;13742;49.306;8.636;2023-02-20T05:12:34;101633.98;;;6.61;96.24
25944;BME280;13742;49.306;8.636;2023-02-20T05:13:34;101634.54;;;6.63;96.36
25944;BME280;13742;49.306;8.636;2023-02-20T05:14:34;101638.52;;;6.62;96.22
25944;BME280;13742;49.306;8.636;2023-02-20T05:15:34;101638.44;;;6.63;96.05
25944;BME280;13742;49.306;8.636;2023-02-20T05:16:36;101639.30;;;6.63;96.05
25944;BME280;13742;49.306;8.636;2023-02-20T05:17:34;101638.55;;;6.64;96.20
25944;BME280;13742;49.306;8.636;2023-02-20T05:18:34;101638.26;;;6.64;96.17
25944;BME280;13742;49.306;8.636;2023-02-20T05:19:34;101639.69;;;6.65;96.33
25944;BME280;13742;49.306;8.636;2023-02-20T05:20:39;101636.27;;;6.67;96.25
25944;BME280;13742;49.306;8.636;2023-02-20T05:21:43;101636.94;;;6.70;96.71
25944;BME280;13742;49.306;8.636;2023-02-20T05:22:34;101638.58;;;6.70;96.47
25944;BME280;13742;49.306;8.636;2023-02-20T05:23:34;101639.16;;;6.73;96.67
25944;BME280;13742;49.306;8.636;2023-02-20T05:24:34;101637.39;;;6.74;96.36
25944;BME280;13742;49.306;8.636;2023-02-20T05:25:34;101635.58;;;6.75;96.37
25944;BME280;13742;49.306;8.636;2023-02-20T05:26:34;101633.52;;;6.76;95.98
25944;BME280;13742;49.306;8.636;2023-02-20T05:27:34;101635.65;;;6.76;95.70
25944;BME280;13742;49.306;8.636;2023-02-20T05:28:34;101638.08;;;6.75;95.51
25944;BME280;13742;49.306;8.636;2023-02-20T05:29:34;101642.55;;;6.76;95.54
25944;BME280;13742;49.306;8.636;2023-02-20T05:30:34;101639.26;;;6.76;95.46
25944;BME280;13742;49.306;8.636;2023-02-20T05:31:34;101644.23;;;6.76;95.39
25944;BME280;13742;49.306;8.636;2023-02-20T05:32:34;101643.08;;;6.75;95.27
25944;BME280;13742;49.306;8.636;2023-02-20T05:33:34;101643.67;;;6.74;95.19
25944;BME280;13742;49.306;8.636;2023-02-20T05:34:34;101640.84;;;6.74;95.27
25944;BME280;13742;49.306;8.636;2023-02-20T05:35:34;101642.23;;;6.74;95.09
25944;BME280;13742;49.306;8.636;2023-02-20T05:36:34;101644.38;;;6.72;95.02
25944;BME280;13742;49.306;8.636;2023-02-20T05:37:34;101642.13;;;6.72;94.95
25944;BME280;13742;49.306;8.636;2023-02-20T05:38:34;101643.16;;;6.71;94.89
25944;BME280;13742;49.306;8.636;2023-02-20T05:39:34;101640.59;;;6.69;94.88
25944;BME280;13742;49.306;8.636;2023-02-20T05:40:34;101639.65;;;6.69;94.84
25944;BME280;13742;49.306;8.636;2023-02-20T05:41:34;101636.05;;;6.69;94.96
25944;BME280;13742;49.306;8.636;2023-02-20T05:42:34;101634.50;;;6.67;94.73
25944;BME280;13742;49.306;8.636;2023-02-20T05:43:34;101630.34;;;6.68;94.89
25944;BME280;13742;49.306;8.636;2023-02-20T05:44:34;101628.27;;;6.67;94.95
25944;BME280;13742;49.306;8.636;2023-02-20T05:45:34;101623.30;;;6.67;94.98
25944;BME280;13742;49.306;8.636;2023-02-20T05:46:37;101627.23;;;6.67;94.92
25944;BME280;13742;49.306;8.636;2023-02-20T05:47:37;101624.73;;;6.67;94.97